createdAt,value
2024-04-18T00:03:55.385Z,5.22
2024-04-18T00:09:30.885Z,5.14
2024-04-18T00:33:55.167Z,5.10
2024-04-18T00:39:59.069Z,4.99
2024-04-18T00:46:02.873Z,4.99
2024-04-18T00:52:07.852Z,4.98
2024-04-18T02:50:48.923Z,6.23
2024-04-18T02:56:23.523Z,5.96
2024-04-18T03:02:28.560Z,5.86
2024-04-18T03:08:33.520Z,5.72
2024-04-18T04:50:45.850Z,5.63
2024-04-18T04:56:05.102Z,5.67
2024-04-18T05:01:52.007Z,5.79
2024-04-18T05:07:15.698Z,5.94
2024-04-18T05:12:28.197Z,6.05
2024-04-18T05:18:00.632Z,6.10
2024-04-18T05:23:38.296Z,6.06
2024-04-18T05:29:02.896Z,6.06
2024-04-18T05:34:27.510Z,6.00
2024-04-18T05:39:42.754Z,5.96
2024-04-18T05:44:58.036Z,5.98
2024-04-18T05:50:41.788Z,6.06
2024-04-18T05:56:26.434Z,6.06
2024-04-18T06:01:57.525Z,6.19
2024-04-18T06:07:23.765Z,6.28
2024-04-18T06:12:27.212Z,6.50
2024-04-18T06:17:41.126Z,6.72
2024-04-18T06:22:44.627Z,6.61
2024-04-18T06:27:50.367Z,6.53
2024-04-18T06:33:13.957Z,6.42
2024-04-18T06:38:17.638Z,6.33
2024-04-18T06:43:41.317Z,6.45
2024-04-18T06:49:12.292Z,6.64
2024-04-18T06:54:36.003Z,6.74
2024-04-18T06:59:46.561Z,6.75
2024-04-18T07:04:49.953Z,6.72
2024-04-18T07:10:00.813Z,6.61
2024-04-18T07:15:06.848Z,6.62
2024-04-18T07:20:20.710Z,6.59
2024-04-18T07:25:36.624Z,6.69
2024-04-18T07:30:59.927Z,6.69
2024-04-18T07:36:09.662Z,6.76
2024-04-18T07:41:21.904Z,6.85
2024-04-18T07:46:33.466Z,6.99
2024-04-18T07:51:36.772Z,7.07
2024-04-18T07:56:43.419Z,7.14
2024-04-18T08:02:14.243Z,7.33
2024-04-18T08:07:22.740Z,7.48
2024-04-18T08:12:40.616Z,7.41
2024-04-18T08:18:00.330Z,7.35
2024-04-18T08:23:04.047Z,7.14
2024-04-18T08:28:30.410Z,7.28
2024-04-18T08:33:39.909Z,7.50
2024-04-18T08:38:48.775Z,7.68
2024-04-18T08:44:05.995Z,7.50
2024-04-18T08:49:13.068Z,7.55
2024-04-18T08:54:19.684Z,7.49
2024-04-18T08:59:25.999Z,7.41
2024-04-18T09:04:36.368Z,7.44
2024-04-18T09:09:39.862Z,7.50
2024-04-18T09:14:51.803Z,7.54
2024-04-18T09:19:58.509Z,7.65
2024-04-18T09:25:10.700Z,7.72
2024-04-18T09:30:23.796Z,7.62
2024-04-18T09:35:32.015Z,7.84
2024-04-18T09:40:41.705Z,8.26
2024-04-18T09:46:02.788Z,8.41
2024-04-18T09:51:09.918Z,8.35
2024-04-18T09:56:33.945Z,8.57
2024-04-18T10:01:41.903Z,8.83
2024-04-18T10:06:47.847Z,8.83
2024-04-18T10:11:54.125Z,8.67
2024-04-18T10:16:59.871Z,8.70
2024-04-18T10:22:29.672Z,8.44
2024-04-18T10:27:44.619Z,8.58
2024-04-18T10:32:49.528Z,8.71
2024-04-18T10:37:54.649Z,8.67
2024-04-18T10:43:16.700Z,8.63
2024-04-18T10:48:22.202Z,8.44
2024-04-18T10:53:28.262Z,8.42
2024-04-18T10:58:32.289Z,8.32
2024-04-18T11:03:35.646Z,8.11
2024-04-18T11:08:39.333Z,8.26
2024-04-18T11:13:42.766Z,8.41
2024-04-18T11:18:47.102Z,8.60
2024-04-18T11:23:56.776Z,8.41
2024-04-18T11:29:11.135Z,8.59
2024-04-18T11:34:14.556Z,8.69
2024-04-18T11:39:29.114Z,8.27
2024-04-18T11:44:41.438Z,8.12
2024-04-18T11:49:44.759Z,8.40
2024-04-18T11:54:48.371Z,8.40
2024-04-18T11:59:54.460Z,8.35
2024-04-18T12:04:57.861Z,8.48
2024-04-18T12:10:21.407Z,8.75
2024-04-18T12:15:24.727Z,8.99
2024-04-18T12:20:37.095Z,9.21
2024-04-18T12:25:40.327Z,9.44
2024-04-18T12:30:43.691Z,9.33
2024-04-18T12:35:49.872Z,9.45
2024-04-18T12:40:53.151Z,9.54
2024-04-18T12:46:06.865Z,9.66
2024-04-18T12:51:18.225Z,9.74
2024-04-18T12:56:21.406Z,9.59
2024-04-18T13:01:24.621Z,9.55
2024-04-18T13:06:28.562Z,9.71
2024-04-18T13:11:34.580Z,9.85
2024-04-18T13:16:58.522Z,9.76
2024-04-18T13:22:10.733Z,9.75
2024-04-18T13:27:13.997Z,9.81
2024-04-18T13:32:26.110Z,9.73
2024-04-18T13:37:29.473Z,9.80
2024-04-18T13:42:41.179Z,9.80
2024-04-18T13:47:47.789Z,9.73
2024-04-18T13:53:02.562Z,9.61
2024-04-18T13:58:13.577Z,9.42
2024-04-18T14:03:39.717Z,9.41
2024-04-18T14:08:42.925Z,9.43
2024-04-18T14:13:46.056Z,9.46
2024-04-18T14:18:49.627Z,9.36
2024-04-18T14:23:53.064Z,9.14
2024-04-18T14:28:58.722Z,8.89
2024-04-18T14:34:01.958Z,8.75
2024-04-18T14:39:05.324Z,8.66
2024-04-18T14:44:08.888Z,8.66
2024-04-18T14:49:14.723Z,8.40
2024-04-18T14:54:20.066Z,8.31
2024-04-18T14:59:23.342Z,8.40
2024-04-18T15:04:32.096Z,8.46
2024-04-18T15:09:35.355Z,8.47
2024-04-18T15:14:38.436Z,8.49
2024-04-18T15:19:44.446Z,8.68
2024-04-18T15:24:49.450Z,8.60
2024-04-18T15:30:02.136Z,8.46
2024-04-18T15:35:05.486Z,8.44
2024-04-18T15:40:08.899Z,8.36
2024-04-18T15:45:12.180Z,8.39
2024-04-18T15:50:15.918Z,8.40
2024-04-18T15:55:22.674Z,8.25
2024-04-18T16:00:28.603Z,7.97
2024-04-18T16:05:31.913Z,7.93
2024-04-18T16:10:36.572Z,8.03
2024-04-18T16:15:49.100Z,8.05
2024-04-18T16:21:02.101Z,7.92
2024-04-18T16:26:25.947Z,7.86
2024-04-18T16:31:30.080Z,7.78
2024-04-18T16:37:18.441Z,7.74
2024-04-18T16:42:22.947Z,7.91
2024-04-18T16:47:29.212Z,7.81
2024-04-18T16:52:34.907Z,7.93
2024-04-18T16:57:38.067Z,8.63
2024-04-18T17:02:53.128Z,8.75
2024-04-18T17:07:56.339Z,8.94
2024-04-18T17:13:02.683Z,9.29
2024-04-18T17:18:08.868Z,9.48
2024-04-18T17:23:14.956Z,9.86
2024-04-18T17:28:38.415Z,9.16
2024-04-18T17:33:42.128Z,8.63
2024-04-18T17:38:50.889Z,8.10
2024-04-18T17:43:56.409Z,7.49
2024-04-18T17:48:59.798Z,7.11
2024-04-18T17:54:03.398Z,6.79
2024-04-18T17:59:20.821Z,6.51
2024-04-18T18:05:01.927Z,6.35
2024-04-18T18:10:23.932Z,6.14
2024-04-18T18:15:35.555Z,5.97
2024-04-18T18:21:08.007Z,5.82
2024-04-18T18:26:41.291Z,5.72
2024-04-18T18:32:19.291Z,5.63
2024-04-18T18:37:28.668Z,5.56
2024-04-18T18:43:02.460Z,5.49
2024-04-18T18:48:32.702Z,5.42
2024-04-18T18:53:59.317Z,5.33
2024-04-18T18:59:11.699Z,5.25
2024-04-18T19:04:18.278Z,5.29
2024-04-18T19:09:45.904Z,5.27
2024-04-18T19:15:01.210Z,5.20
2024-04-18T19:20:07.133Z,5.12
2024-04-18T19:25:15.578Z,5.02
2024-04-18T19:30:21.818Z,4.86
2024-04-18T19:35:31.223Z,4.74
2024-04-18T19:40:42.062Z,4.72
2024-04-18T19:46:28.940Z,4.66
2024-04-18T19:51:52.715Z,4.58
2024-04-18T19:57:01.662Z,4.53
2024-04-18T20:02:12.658Z,4.45
2024-04-18T20:07:36.168Z,4.42
2024-04-18T20:12:59.814Z,4.39
2024-04-18T20:18:23.783Z,4.31
2024-04-18T20:23:41.279Z,4.15
2024-04-18T20:29:01.829Z,3.97
2024-04-18T20:34:28.201Z,3.85
2024-04-18T20:39:51.172Z,3.83
2024-04-18T20:45:23.937Z,3.76
2024-04-18T20:50:50.364Z,3.67
2024-04-18T20:55:56.490Z,3.59
2024-04-18T21:01:20.241Z,3.52
2024-04-18T21:06:53.057Z,3.48
2024-04-18T21:12:56.869Z,3.39
2024-04-18T21:18:53.612Z,3.32
2024-04-18T21:24:47.540Z,3.24
2024-04-18T21:30:18.196Z,3.17
2024-04-18T21:35:50.611Z,3.21
2024-04-18T21:41:18.220Z,3.24
2024-04-18T21:46:21.733Z,3.20
2024-04-18T21:51:36.687Z,3.14
2024-04-18T21:57:06.828Z,3.08
2024-04-18T22:02:27.728Z,3.01
2024-04-18T22:08:02.111Z,2.96
2024-04-18T22:13:28.171Z,2.89
2024-04-18T22:18:57.019Z,2.81
2024-04-18T22:25:00.984Z,2.75
2024-04-18T22:30:46.045Z,2.67
2024-04-18T22:36:51.326Z,2.63
2024-04-18T23:16:02.299Z,2.38
2024-04-18T23:22:10.766Z,2.28
2024-04-18T23:27:40.891Z,2.19
